Minnetonka, Minnesota
Current Conditions -  °F | °C
As of 1:53 PM on Thursday 30 Oct 2014 (Local Time) from KFCM Reporting Station
Overcast Overcast  
Wind Chill: 45°   Ceiling: 4900
Heat Index: 48°   Visibility: 10mi
Dew Point: 37°   Wind: 7mph
Humidity: 66%   Direction: 340°NNW
Pressure: 30.09"   Gusts: NA
Location:  44.94°N, 93.47°W
Report Text: KFCM 301853Z 34006KT 10SM OVC049 09/03 A3009 RMK AO2 SLP196 T00890028
Loading
Personal Weather Stations






























Interactive Weather Map
Tropical Storm Tracking
New forecast layout! Learn more

10-Day Weather Forecast

Advertisements
Track Severe Weather on mobile